createdAt,value
2017-09-04T00:00:31.373Z,0
2017-09-04T00:02:31.394Z,0
2017-09-04T00:03:31.723Z,0
2017-09-04T00:04:31.749Z,0
2017-09-04T00:05:31.766Z,0
2017-09-04T00:06:31.833Z,0
2017-09-04T00:07:31.197Z,0
2017-09-04T00:08:31.512Z,0
2017-09-04T00:09:31.865Z,0
2017-09-04T00:10:46.170Z,0
2017-09-04T00:11:31.590Z,0
2017-09-04T00:12:46.211Z,0
2017-09-04T00:13:31.653Z,0
2017-09-04T00:14:31.972Z,0
2017-09-04T00:15:31.979Z,0
2017-09-04T00:16:46.627Z,0
2017-09-04T00:17:32.033Z,0
2017-09-04T00:18:32.059Z,0
2017-09-04T00:20:32.117Z,0
2017-09-04T00:21:32.118Z,0
2017-09-04T00:22:46.749Z,0
2017-09-04T00:23:32.151Z,0
2017-09-04T00:24:32.195Z,0
2017-09-04T00:25:32.198Z,0
2017-09-04T00:26:32.231Z,0
2017-09-04T00:27:32.253Z,0
2017-09-04T00:28:31.972Z,0
2017-09-04T00:29:31.953Z,0
2017-09-04T00:30:32.010Z,0
2017-09-04T00:31:32.341Z,0
2017-09-04T00:32:32.055Z,0
2017-09-04T00:33:32.366Z,0
2017-09-04T00:34:32.404Z,0
2017-09-04T00:35:32.438Z,0
2017-09-04T00:36:32.135Z,0
2017-09-04T00:37:32.160Z,0
2017-09-04T00:38:32.165Z,0
2017-09-04T00:39:32.522Z,0
2017-09-04T00:40:47.142Z,0
2017-09-04T00:41:32.233Z,0
2017-09-04T00:42:46.865Z,0
2017-09-04T00:43:47.214Z,0
2017-09-04T00:44:32.315Z,0
2017-09-04T00:45:32.315Z,0
2017-09-04T00:46:32.359Z,0
2017-09-04T00:47:32.359Z,0
2017-09-04T00:48:47.316Z,0
2017-09-04T00:49:32.724Z,0
2017-09-04T00:50:32.760Z,0
2017-09-04T00:51:32.768Z,0
2017-09-04T00:52:32.474Z,0
2017-09-04T00:53:32.497Z,0
2017-09-04T00:54:47.445Z,0
2017-09-04T00:55:33.132Z,0
2017-09-04T00:56:32.888Z,0
2017-09-04T00:57:32.902Z,0
2017-09-04T00:58:47.219Z,0
2017-09-04T00:59:32.948Z,0
2017-09-04T01:00:32.664Z,0
2017-09-04T01:01:32.997Z,0
2017-09-04T01:02:32.988Z,0
2017-09-04T01:03:47.326Z,0
2017-09-04T01:04:32.405Z,0
2017-09-04T01:05:33.379Z,0
2017-09-04T01:07:33.127Z,0
2017-09-04T01:08:33.153Z,0
2017-09-04T01:09:33.163Z,0
2017-09-04T01:10:33.180Z,0
2017-09-04T01:11:32.878Z,0
2017-09-04T01:12:33.251Z,0
2017-09-04T01:13:32.929Z,0
2017-09-04T01:15:02.486Z,0
2017-09-04T01:15:33.286Z,0
2017-09-04T01:16:33.335Z,0
2017-09-04T01:17:33.333Z,0
2017-09-04T01:18:33.360Z,0
2017-09-04T01:19:33.351Z,0
2017-09-04T01:20:33.401Z,0
2017-09-04T01:21:48.019Z,0
2017-09-04T01:22:48.054Z,0
2017-09-04T01:23:48.079Z,0
2017-09-04T01:25:48.121Z,0
2017-09-04T01:26:33.530Z,0
2017-09-04T01:27:33.555Z,0
2017-09-04T01:28:33.249Z,0
2017-09-04T01:29:33.268Z,0
2017-09-04T01:30:48.226Z,0
2017-09-04T01:31:33.332Z,0
2017-09-04T01:32:33.340Z,0
2017-09-04T01:33:47.972Z,0
2017-09-04T01:34:33.377Z,0
2017-09-04T01:35:33.715Z,0
2017-09-04T01:36:33.731Z,0
2017-09-04T01:37:33.461Z,0
2017-09-04T01:38:33.467Z,0
2017-09-04T01:39:33.805Z,0
2017-09-04T01:40:33.508Z,0
2017-09-04T01:41:33.845Z,0
2017-09-04T01:42:33.844Z,0
2017-09-04T01:43:33.881Z,0
2017-09-04T01:44:33.902Z,0
2017-09-04T01:45:48.558Z,0
2017-09-04T01:46:48.543Z,0
2017-09-04T01:47:33.972Z,0
2017-09-04T01:48:33.991Z,0
2017-09-04T01:49:34.025Z,0
2017-09-04T01:50:34.044Z,0
2017-09-04T01:53:34.085Z,0
2017-09-04T01:54:34.143Z,0
2017-09-04T01:55:33.817Z,0
2017-09-04T01:56:34.174Z,0
2017-09-04T01:57:33.883Z,0
2017-09-04T01:58:48.818Z,0
2017-09-04T01:59:33.921Z,0
2017-09-04T02:00:34.259Z,0
2017-09-04T02:02:34.280Z,0
2017-09-04T02:03:33.997Z,0
2017-09-04T02:04:34.340Z,0
2017-09-04T02:05:34.351Z,0
2017-09-04T02:06:34.058Z,0
2017-09-04T02:07:34.133Z,0
2017-09-04T02:08:34.417Z,0
2017-09-04T02:09:34.447Z,0
2017-09-04T02:10:34.454Z,0
2017-09-04T02:11:34.158Z,0
2017-09-04T02:12:34.510Z,0
2017-09-04T02:13:34.520Z,0
2017-09-04T02:15:34.627Z,0
2017-09-04T02:16:34.262Z,0
2017-09-04T02:17:49.204Z,0
2017-09-04T02:18:49.257Z,0
2017-09-04T02:19:34.646Z,0
2017-09-04T02:20:49.278Z,0
2017-09-04T02:21:34.743Z,0
2017-09-04T02:22:34.715Z,0
2017-09-04T02:23:34.731Z,0
2017-09-04T02:24:34.743Z,0
2017-09-04T02:25:34.470Z,0
2017-09-04T02:26:34.803Z,0
2017-09-04T02:27:49.426Z,0
2017-09-04T02:28:34.543Z,0
2017-09-04T02:29:34.854Z,0
2017-09-04T02:30:34.899Z,0
2017-09-04T02:31:34.971Z,0
2017-09-04T02:32:49.554Z,0
2017-09-04T02:34:49.559Z,0
2017-09-04T02:35:49.602Z,0
2017-09-04T02:36:34.744Z,0
2017-09-04T02:37:34.770Z,0
2017-09-04T02:38:35.071Z,0
2017-09-04T02:39:49.673Z,0
2017-09-04T02:40:35.089Z,0
2017-09-04T02:41:34.792Z,0
2017-09-04T02:42:35.128Z,0
2017-09-04T02:43:35.169Z,0
2017-09-04T02:44:34.859Z,0
2017-09-04T02:45:35.200Z,0
2017-09-04T02:46:35.229Z,0
2017-09-04T02:47:34.929Z,0
2017-09-04T02:48:34.969Z,0
2017-09-04T02:49:49.589Z,0
2017-09-04T02:50:35.319Z,0
2017-09-04T02:51:34.697Z,0
2017-09-04T02:52:35.064Z,0
2017-09-04T02:53:35.053Z,0
2017-09-04T02:54:35.100Z,0
2017-09-04T02:55:35.102Z,0
2017-09-04T02:56:35.436Z,0
2017-09-04T02:57:35.127Z,0
2017-09-04T02:58:35.168Z,0
2017-09-04T02:59:49.786Z,0
2017-09-04T03:01:35.245Z,0
2017-09-04T03:02:34.922Z,0
2017-09-04T03:03:35.268Z,0
2017-09-04T03:04:35.266Z,0
2017-09-04T03:05:49.925Z,0
2017-09-04T03:06:35.622Z,0
2017-09-04T03:07:50.313Z,0
2017-09-04T03:08:35.670Z,0
2017-09-04T03:09:35.091Z,0
2017-09-04T03:10:35.425Z,0
2017-09-04T03:12:35.753Z,0
2017-09-04T03:13:35.795Z,0
2017-09-04T03:14:35.506Z,0
2017-09-04T03:15:50.428Z,0
2017-09-04T03:16:35.850Z,0
2017-09-04T03:17:35.871Z,0
2017-09-04T03:18:35.591Z,0
2017-09-04T03:19:35.601Z,0
2017-09-04T03:20:50.550Z,0
2017-09-04T03:21:35.649Z,0
2017-09-04T03:22:49.960Z,0
2017-09-04T03:23:35.999Z,0
2017-09-04T03:24:35.741Z,0
2017-09-04T03:25:35.733Z,0
2017-09-04T03:26:35.734Z,0
2017-09-04T03:27:36.148Z,0
2017-09-04T03:28:36.094Z,0
2017-09-04T03:29:35.829Z,0
2017-09-04T03:30:36.129Z,0
2017-09-04T03:31:36.183Z,0
2017-09-04T03:32:35.873Z,0
2017-09-04T03:33:35.897Z,0
2017-09-04T03:34:36.232Z,0
2017-09-04T03:35:36.251Z,0
2017-09-04T03:36:36.258Z,0
2017-09-04T03:37:35.672Z,0
2017-09-04T03:38:35.986Z,0
2017-09-04T03:39:36.024Z,0
2017-09-04T03:40:36.037Z,0
2017-09-04T03:41:36.067Z,0
2017-09-04T03:42:36.394Z,0
2017-09-04T03:43:36.424Z,0
2017-09-04T03:44:36.108Z,0
2017-09-04T03:45:36.153Z,0
2017-09-04T03:46:36.457Z,4
2017-09-04T03:47:36.522Z,4
2017-09-04T03:48:36.527Z,4
2017-09-04T03:49:36.224Z,4
2017-09-04T03:50:50.853Z,0
2017-09-04T03:51:36.253Z,4
2017-09-04T03:52:50.904Z,4
2017-09-04T03:53:36.311Z,8
2017-09-04T03:54:36.648Z,4
2017-09-04T03:55:36.369Z,8
2017-09-04T03:56:36.694Z,4
2017-09-04T03:57:36.693Z,8
2017-09-04T03:58:36.724Z,12
2017-09-04T03:59:36.739Z,12
2017-09-04T04:01:36.793Z,12
2017-09-04T04:02:36.806Z,16
2017-09-04T04:03:36.818Z,20
2017-09-04T04:04:36.866Z,24
2017-09-04T04:05:36.881Z,28
2017-09-04T04:07:36.897Z,36
2017-09-04T04:08:51.228Z,40
2017-09-04T04:09:36.973Z,48
2017-09-04T04:10:51.576Z,56
2017-09-04T04:11:51.301Z,64
2017-09-04T04:12:51.316Z,68
2017-09-04T04:13:37.054Z,76
2017-09-04T04:14:51.682Z,84
2017-09-04T04:15:37.091Z,96
2017-09-04T04:16:36.465Z,108
2017-09-04T04:17:51.739Z,128
2017-09-04T04:18:37.125Z,140
2017-09-04T04:19:37.181Z,172
2017-09-04T04:20:37.186Z,204
2017-09-04T04:21:37.233Z,240
2017-09-04T04:22:37.227Z,288
2017-09-04T04:23:37.232Z,328
2017-09-04T04:24:51.879Z,380
2017-09-04T04:25:51.896Z,424
2017-09-04T04:26:37.306Z,456
2017-09-04T04:27:37.331Z,504
2017-09-04T04:28:37.368Z,556
2017-09-04T04:29:37.377Z,616
2017-09-04T04:30:37.383Z,680
2017-09-04T04:31:37.420Z,740
2017-09-04T04:32:37.450Z,804
2017-09-04T04:33:37.469Z,872
2017-09-04T04:34:37.510Z,944
2017-09-04T04:35:37.182Z,1012
2017-09-04T04:36:37.517Z,1088
2017-09-04T04:37:37.540Z,1156
2017-09-04T04:38:37.255Z,1228
2017-09-04T04:39:37.561Z,1300
2017-09-04T04:41:37.609Z,1428
2017-09-04T04:42:37.626Z,1492
2017-09-04T04:43:37.038Z,1556
2017-09-04T04:44:37.704Z,1616
2017-09-04T04:45:37.723Z,1684
2017-09-04T04:46:51.705Z,1752
2017-09-04T04:47:37.439Z,1792
2017-09-04T04:48:37.442Z,1844
2017-09-04T04:49:37.476Z,1892
2017-09-04T04:50:37.473Z,1944
2017-09-04T04:51:37.520Z,2004
2017-09-04T04:52:37.840Z,2064
2017-09-04T04:53:37.571Z,2132
2017-09-04T04:54:37.577Z,2204
2017-09-04T04:55:52.222Z,2308
2017-09-04T04:56:37.915Z,2372
2017-09-04T04:57:37.654Z,2456
2017-09-04T04:59:37.988Z,2640
2017-09-04T05:00:37.389Z,2736
2017-09-04T05:02:37.443Z,2936
2017-09-04T05:04:37.489Z,3016
2017-09-04T05:05:37.803Z,3080
2017-09-04T05:06:38.135Z,3168
2017-09-04T05:07:52.468Z,3276
2017-09-04T05:08:52.812Z,3376
2017-09-04T05:09:37.919Z,3444
2017-09-04T05:10:37.915Z,3540
2017-09-04T05:11:37.948Z,3652
2017-09-04T05:12:37.635Z,3772
2017-09-04T05:13:37.668Z,3904
2017-09-04T05:14:37.995Z,4088
2017-09-04T05:15:38.036Z,4876
2017-09-04T05:16:38.371Z,6284
2017-09-04T05:17:38.375Z,6144
2017-09-04T05:18:38.393Z,5188
2017-09-04T05:19:38.111Z,5000
2017-09-04T05:20:38.127Z,6036
2017-09-04T05:21:52.758Z,6196
2017-09-04T05:22:38.182Z,6860
2017-09-04T05:23:38.193Z,7844
2017-09-04T05:25:38.244Z,6328
2017-09-04T05:26:38.578Z,5624
2017-09-04T05:27:53.180Z,5700
2017-09-04T05:28:38.612Z,5816
2017-09-04T05:30:38.343Z,6148
2017-09-04T05:31:38.352Z,6236
2017-09-04T05:32:38.403Z,6308
2017-09-04T05:33:38.415Z,7236
2017-09-04T05:34:53.398Z,7316
2017-09-04T05:35:38.755Z,7080
2017-09-04T05:36:38.763Z,7704
2017-09-04T05:37:53.421Z,8324
2017-09-04T05:38:38.511Z,8764
2017-09-04T05:39:38.555Z,10972
2017-09-04T05:40:38.856Z,13760
2017-09-04T05:41:53.497Z,15872
2017-09-04T05:42:38.897Z,10692
2017-09-04T05:43:53.549Z,8448
2017-09-04T05:44:38.966Z,8476
2017-09-04T05:45:53.283Z,8692
2017-09-04T05:46:39.012Z,8660
2017-09-04T05:47:39.011Z,8400
2017-09-04T05:48:39.049Z,8816
2017-09-04T05:49:38.747Z,9044
2017-09-04T05:50:38.792Z,10000
2017-09-04T05:51:39.109Z,12584
2017-09-04T05:52:39.136Z,18464
2017-09-04T05:53:39.141Z,30208
2017-09-04T05:54:39.196Z,37664
2017-09-04T05:55:53.499Z,41536
2017-09-04T05:56:38.922Z,46080
2017-09-04T05:58:39.279Z,52608
2017-09-04T06:00:38.989Z,52672
2017-09-04T06:01:39.059Z,53760
2017-09-04T06:02:53.657Z,56448
2017-09-04T06:03:54.012Z,55136
2017-09-04T06:05:39.142Z,58112
2017-09-04T06:06:39.157Z,62400
2017-09-04T06:07:39.494Z,62528
2017-09-04T06:08:53.818Z,60608
2017-09-04T06:09:53.546Z,60288
2017-09-04T06:10:39.559Z,61824
2017-09-04T06:12:39.328Z,60832
2017-09-04T06:13:39.350Z,56704
2017-09-04T06:14:54.305Z,56096
2017-09-04T06:15:54.636Z,59616
2017-09-04T06:16:39.415Z,60928
2017-09-04T06:17:39.461Z,63712
2017-09-04T06:18:39.812Z,66208
2017-09-04T06:19:39.513Z,66016
2017-09-04T06:20:39.865Z,63456
2017-09-04T06:21:54.493Z,63168
2017-09-04T06:22:39.931Z,65408
2017-09-04T06:23:39.627Z,67552
2017-09-04T06:24:39.679Z,66208
2017-09-04T06:25:40.030Z,65504
2017-09-04T06:26:39.788Z,64224
2017-09-04T06:27:40.062Z,66240
2017-09-04T06:28:39.778Z,67840
2017-09-04T06:29:39.832Z,67456
2017-09-04T06:30:54.459Z,68576
2017-09-04T06:31:39.891Z,68992
2017-09-04T06:32:40.209Z,68480
2017-09-04T06:33:39.961Z,68768
2017-09-04T06:34:40.286Z,68928
2017-09-04T06:35:40.329Z,64864
2017-09-04T06:36:40.055Z,64992
2017-09-04T06:37:40.406Z,67712
2017-09-04T06:38:40.431Z,71264
2017-09-04T06:39:40.456Z,70336
2017-09-04T06:40:40.171Z,69440
2017-09-04T06:41:40.264Z,71040
2017-09-04T06:42:55.182Z,68800
2017-09-04T06:43:40.587Z,69408
2017-09-04T06:44:40.623Z,71136
2017-09-04T06:45:40.706Z,69536
2017-09-04T06:46:40.693Z,68224
2017-09-04T06:47:40.729Z,68064
2017-09-04T06:48:40.456Z,67904
2017-09-04T06:50:40.813Z,69024
2017-09-04T06:51:40.828Z,68480
2017-09-04T06:52:41.114Z,68160
2017-09-04T06:53:40.599Z,69408
2017-09-04T06:54:40.954Z,67008
2017-09-04T06:55:40.681Z,65920
2017-09-04T06:56:40.706Z,66624
2017-09-04T06:57:40.738Z,67488
2017-09-04T06:58:40.778Z,66368
2017-09-04T06:59:41.116Z,66176
2017-09-04T07:00:41.359Z,68192
2017-09-04T07:01:40.892Z,67008
2017-09-04T07:02:55.821Z,69600
2017-09-04T07:04:41.271Z,68736
2017-09-04T07:05:41.313Z,69216
2017-09-04T07:06:41.358Z,68960
2017-09-04T07:08:41.427Z,67680
2017-09-04T07:09:41.148Z,68032
2017-09-04T07:10:55.807Z,65408
2017-09-04T07:11:41.505Z,65408
2017-09-04T07:12:41.559Z,65248
2017-09-04T07:13:56.213Z,63744
2017-09-04T07:14:41.632Z,65152
2017-09-04T07:15:41.656Z,65696
2017-09-04T07:16:41.698Z,65088
2017-09-04T07:19:10.997Z,65984
2017-09-04T07:19:41.818Z,64864
2017-09-04T07:20:56.120Z,62496
2017-09-04T07:21:41.970Z,60704
2017-09-04T07:22:41.882Z,54528
2017-09-04T07:23:41.983Z,57984
2017-09-04T07:24:41.664Z,55072
2017-09-04T07:25:42.010Z,52576
2017-09-04T07:26:41.428Z,53408
2017-09-04T07:27:42.092Z,52352
2017-09-04T07:28:42.098Z,54016
2017-09-04T07:29:42.133Z,53408
2017-09-04T07:31:42.209Z,49184
2017-09-04T07:32:41.945Z,48352
2017-09-04T07:33:57.138Z,49472
2017-09-04T07:34:56.615Z,49728
2017-09-04T07:35:42.342Z,48224
2017-09-04T07:36:42.359Z,49056
2017-09-04T07:37:42.416Z,49088
2017-09-04T07:38:42.437Z,49536
2017-09-04T07:39:57.091Z,53664
2017-09-04T07:40:42.641Z,55968
2017-09-04T07:41:42.233Z,58304
2017-09-04T07:42:42.602Z,65280
2017-09-04T07:43:57.336Z,63232
2017-09-04T07:44:42.663Z,61536
2017-09-04T07:45:42.061Z,62208
2017-09-04T07:46:42.570Z,59840
2017-09-04T07:47:42.864Z,59264
2017-09-04T07:48:41.842Z,59840
2017-09-04T07:50:57.474Z,57824
2017-09-04T07:51:42.890Z,56192
2017-09-04T07:52:57.221Z,61792
2017-09-04T07:53:42.636Z,61248
2017-09-04T07:54:42.364Z,58272
2017-09-04T07:55:42.492Z,53472
2017-09-04T07:56:42.760Z,45696
2017-09-04T07:57:43.064Z,49536
2017-09-04T07:58:57.419Z,58112
2017-09-04T07:59:43.239Z,57248
2017-09-04T08:00:42.883Z,54048
2017-09-04T08:01:43.368Z,52768
2017-09-04T08:02:43.258Z,52544
2017-09-04T08:03:57.598Z,50752
2017-09-04T08:04:43.003Z,52320
2017-09-04T08:06:12.581Z,51648
2017-09-04T08:06:43.507Z,51296
2017-09-04T08:07:43.102Z,48192
2017-09-04T08:08:43.234Z,46656
2017-09-04T08:09:43.172Z,48544
2017-09-04T08:10:43.304Z,49248
2017-09-04T08:11:43.664Z,50528
2017-09-04T08:13:43.422Z,49344
2017-09-04T08:14:43.734Z,49536
2017-09-04T08:15:43.686Z,48256
2017-09-04T08:16:43.412Z,48064
2017-09-04T08:17:43.435Z,48032
2017-09-04T08:18:43.668Z,46656
2017-09-04T08:19:43.516Z,46688
2017-09-04T08:20:43.966Z,46848
2017-09-04T08:21:43.974Z,48448
2017-09-04T08:22:43.284Z,48992
2017-09-04T08:23:43.302Z,46624
2017-09-04T08:24:43.570Z,43648
2017-09-04T08:25:44.209Z,45504
2017-09-04T08:26:43.843Z,44864
2017-09-04T08:27:43.447Z,41984
2017-09-04T08:28:43.181Z,41152
2017-09-04T08:29:44.130Z,40224
2017-09-04T08:30:44.270Z,37952
2017-09-04T08:31:43.892Z,39008
2017-09-04T08:32:58.863Z,36928
2017-09-04T08:33:44.268Z,35744
2017-09-04T08:34:43.998Z,37888
2017-09-04T08:35:44.325Z,34560
2017-09-04T08:36:44.305Z,28448
2017-09-04T08:37:59.023Z,22080
2017-09-04T08:38:44.134Z,21344
2017-09-04T08:40:58.801Z,19520
2017-09-04T08:41:44.671Z,20480
2017-09-04T08:42:44.249Z,20448
2017-09-04T08:43:44.597Z,20352
2017-09-04T08:44:58.929Z,20544
2017-09-04T08:45:44.768Z,20320
2017-09-04T08:46:44.675Z,20480
2017-09-04T08:47:44.721Z,20320
2017-09-04T08:48:44.769Z,20128
2017-09-04T08:49:44.907Z,19776
2017-09-04T08:50:44.817Z,19776
2017-09-04T08:51:44.850Z,19584
2017-09-04T08:52:44.580Z,19520
2017-09-04T08:53:59.520Z,19648
2017-09-04T08:54:59.260Z,19552
2017-09-04T08:55:45.066Z,19648
2017-09-04T08:56:45.023Z,19424
2017-09-04T08:57:44.837Z,19296
2017-09-04T08:58:44.462Z,19488
2017-09-04T08:59:44.786Z,19360
2017-09-04T09:00:59.926Z,19296
2017-09-04T09:01:59.917Z,19232
2017-09-04T09:03:45.325Z,19296
2017-09-04T09:04:44.951Z,19136
2017-09-04T09:05:45.309Z,19136
2017-09-04T09:06:45.435Z,18976
2017-09-04T09:07:45.471Z,18912
2017-09-04T09:09:59.730Z,18624
2017-09-04T09:10:45.133Z,18528
2017-09-04T09:11:45.372Z,18464
2017-09-04T09:12:45.187Z,18400
2017-09-04T09:13:45.561Z,18240
2017-09-04T09:14:44.966Z,18208
2017-09-04T09:15:45.717Z,18048
2017-09-04T09:16:45.333Z,17856
2017-09-04T09:17:45.440Z,17856
2017-09-04T09:19:00.332Z,17696
2017-09-04T09:20:45.672Z,17600
2017-09-04T09:22:00.421Z,17312
2017-09-04T09:22:45.619Z,16992
2017-09-04T09:23:45.863Z,16888
2017-09-04T09:24:45.907Z,16648
2017-09-04T09:26:00.562Z,16468
2017-09-04T09:27:00.562Z,16224
2017-09-04T09:27:46.108Z,16144
2017-09-04T09:29:46.256Z,16000
2017-09-04T09:30:45.767Z,16016
2017-09-04T09:32:00.517Z,15848
2017-09-04T09:32:46.463Z,15868
2017-09-04T09:33:45.871Z,15760
2017-09-04T09:34:46.223Z,15616
2017-09-04T09:35:46.244Z,15504
2017-09-04T09:36:46.008Z,15336
2017-09-04T09:37:46.200Z,15232
2017-09-04T09:38:46.023Z,15232
2017-09-04T09:39:46.034Z,15252
2017-09-04T09:41:15.623Z,15112
2017-09-04T09:41:46.415Z,15068
2017-09-04T09:42:46.272Z,14836
2017-09-04T09:43:46.577Z,14668
2017-09-04T09:45:00.821Z,14712
2017-09-04T09:46:46.685Z,14868
2017-09-04T09:47:46.415Z,15176
2017-09-04T09:48:46.347Z,14972
2017-09-04T09:49:46.786Z,14712
2017-09-04T09:50:46.810Z,14608
2017-09-04T09:52:01.354Z,14624
2017-09-04T09:52:46.581Z,14840
2017-09-04T09:53:46.806Z,14684
2017-09-04T09:54:46.616Z,14640
2017-09-04T09:55:46.953Z,14888
2017-09-04T09:57:01.197Z,14696
2017-09-04T09:57:46.872Z,14544
2017-09-04T09:58:46.658Z,14340
2017-09-04T09:59:46.988Z,14228
2017-09-04T10:00:46.940Z,14036
2017-09-04T10:01:46.723Z,14068
2017-09-04T10:02:46.854Z,13924
2017-09-04T10:03:46.496Z,14128
2017-09-04T10:06:01.566Z,13900
2017-09-04T10:06:46.991Z,13884
2017-09-04T10:08:46.953Z,13684
2017-09-04T10:09:46.659Z,13480
2017-09-04T10:11:47.024Z,13248
2017-09-04T10:13:01.680Z,13540
2017-09-04T10:13:47.103Z,13356
2017-09-04T10:15:46.958Z,13120
2017-09-04T10:16:47.229Z,12972
2017-09-04T10:17:47.639Z,12940
2017-09-04T10:18:46.926Z,13028
2017-09-04T10:19:46.966Z,13032
2017-09-04T10:20:47.607Z,13092
2017-09-04T10:21:47.744Z,13104
2017-09-04T10:23:47.064Z,6152
2017-09-04T10:24:47.727Z,7608
2017-09-04T10:25:47.761Z,13076
2017-09-04T10:26:47.576Z,12996
2017-09-04T10:27:47.818Z,12684
2017-09-04T10:29:02.508Z,12488
2017-09-04T10:29:47.551Z,12608
2017-09-04T10:30:47.927Z,12464
2017-09-04T10:31:47.941Z,12360
2017-09-04T10:35:02.633Z,11976
2017-09-04T10:35:48.075Z,11928
2017-09-04T10:36:48.184Z,12104
2017-09-04T10:37:48.134Z,4952
2017-09-04T10:38:48.277Z,11896
2017-09-04T10:39:48.173Z,12016
2017-09-04T10:40:47.563Z,5052
2017-09-04T10:41:47.914Z,5068
2017-09-04T10:42:47.987Z,12008
2017-09-04T10:43:48.596Z,12332
2017-09-04T10:45:48.033Z,11580
2017-09-04T10:46:48.382Z,12424
2017-09-04T10:47:48.389Z,12028
2017-09-04T10:48:48.266Z,11544
2017-09-04T10:50:02.753Z,11084
2017-09-04T10:50:48.877Z,10864
2017-09-04T10:51:48.494Z,10500
2017-09-04T10:53:48.361Z,10084
2017-09-04T10:54:48.814Z,9780
2017-09-04T10:56:48.453Z,9204
2017-09-04T10:57:48.703Z,8992
2017-09-04T10:58:48.717Z,8928
2017-09-04T10:59:48.746Z,8640
2017-09-04T11:01:03.378Z,8252
2017-09-04T11:01:48.960Z,8132
2017-09-04T11:03:03.125Z,7908
2017-09-04T11:03:48.857Z,7856
2017-09-04T11:05:48.898Z,7656
2017-09-04T11:06:49.022Z,7612
2017-09-04T11:07:48.963Z,7416
2017-09-04T11:08:48.998Z,7248
2017-09-04T11:09:48.946Z,7280
2017-09-04T11:10:48.412Z,7296
2017-09-04T11:11:49.055Z,7260
2017-09-04T11:12:48.806Z,7224
2017-09-04T11:13:49.120Z,7208
2017-09-04T11:15:03.775Z,7120
2017-09-04T11:16:03.476Z,7056
2017-09-04T11:16:49.184Z,7000
2017-09-04T11:17:48.907Z,6980
2017-09-04T11:18:48.947Z,6984
2017-09-04T11:19:48.852Z,6936
2017-09-04T11:20:49.514Z,6920
2017-09-04T11:21:49.006Z,6968
2017-09-04T11:22:49.382Z,7248
2017-09-04T11:23:49.174Z,7476
2017-09-04T11:24:49.223Z,7248
2017-09-04T11:25:49.140Z,7132
2017-09-04T11:26:49.492Z,7164
2017-09-04T11:27:49.493Z,6848
2017-09-04T11:28:49.270Z,7192
2017-09-04T11:29:49.225Z,7328
2017-09-04T11:30:49.275Z,7524
2017-09-04T11:31:49.389Z,7536
2017-09-04T11:32:49.105Z,7360
2017-09-04T11:33:49.339Z,7484
2017-09-04T11:34:49.371Z,7804
2017-09-04T11:35:49.726Z,8284
2017-09-04T11:36:49.433Z,8652
2017-09-04T11:37:49.470Z,8704
2017-09-04T11:38:49.574Z,8748
2017-09-04T11:39:49.834Z,8512
2017-09-04T11:41:04.146Z,8672
2017-09-04T11:42:50.097Z,8448
2017-09-04T11:43:49.939Z,8600
2017-09-04T11:44:49.631Z,8340
2017-09-04T11:45:49.766Z,8028
2017-09-04T11:46:49.829Z,8208
2017-09-04T11:48:04.650Z,8928
2017-09-04T11:48:50.163Z,9220
2017-09-04T11:49:49.470Z,9144
2017-09-04T11:50:49.497Z,8888
2017-09-04T11:51:49.872Z,8164
2017-09-04T11:52:50.268Z,7904
2017-09-04T11:54:04.813Z,7836
2017-09-04T11:55:50.020Z,5960
2017-09-04T11:56:50.627Z,7840
2017-09-04T11:57:50.283Z,7956
2017-09-04T11:58:50.467Z,8240
2017-09-04T11:59:50.463Z,6736
2017-09-04T12:01:05.002Z,7484
2017-09-04T12:01:50.422Z,8644
2017-09-04T12:02:50.430Z,8568
2017-09-04T12:04:05.090Z,6396
2017-09-04T12:04:50.467Z,7780
2017-09-04T12:05:50.524Z,5364
2017-09-04T12:06:50.318Z,5740
2017-09-04T12:07:50.374Z,6384
2017-09-04T12:08:50.703Z,6096
2017-09-04T12:09:50.421Z,6660
2017-09-04T12:11:50.374Z,6852
2017-09-04T12:12:50.172Z,7008
2017-09-04T12:13:50.434Z,5244
2017-09-04T12:16:05.393Z,6988
2017-09-04T12:17:05.545Z,6692
2017-09-04T12:18:05.545Z,6360
2017-09-04T12:18:50.562Z,6196
2017-09-04T12:20:05.519Z,6376
2017-09-04T12:21:05.523Z,6552
2017-09-04T12:21:50.754Z,6640
2017-09-04T12:22:51.126Z,6436
2017-09-04T12:23:51.168Z,6664
2017-09-04T12:24:51.034Z,6968
2017-09-04T12:25:51.167Z,7160
2017-09-04T12:26:51.074Z,7024
2017-09-04T12:28:05.726Z,7264
2017-09-04T12:28:50.609Z,7236
2017-09-04T12:29:50.631Z,6832
2017-09-04T12:30:50.860Z,7768
2017-09-04T12:31:51.250Z,7524
2017-09-04T12:33:51.381Z,6296
2017-09-04T12:35:05.906Z,7292
2017-09-04T12:36:05.930Z,7388
2017-09-04T12:37:51.166Z,7504
2017-09-04T12:39:05.703Z,7868
2017-09-04T12:39:50.901Z,8244
2017-09-04T12:40:51.743Z,8688
2017-09-04T12:41:51.385Z,8844
2017-09-04T12:42:51.186Z,8744
2017-09-04T12:43:51.542Z,8812
2017-09-04T12:44:51.249Z,8480
2017-09-04T12:46:51.440Z,8100
2017-09-04T12:47:51.063Z,8184
2017-09-04T12:48:51.042Z,8248
2017-09-04T12:49:51.379Z,8584
2017-09-04T12:51:06.335Z,8684
2017-09-04T12:51:51.432Z,8556
2017-09-04T12:54:06.420Z,8428
2017-09-04T12:54:51.504Z,8288
2017-09-04T12:55:51.747Z,8140
2017-09-04T12:56:51.872Z,8392
2017-09-04T12:57:51.711Z,8808
2017-09-04T12:58:51.938Z,8900
2017-09-04T12:59:52.077Z,8736
2017-09-04T13:00:52.070Z,8388
2017-09-04T13:01:52.029Z,8320
2017-09-04T13:02:52.033Z,8392
2017-09-04T13:04:06.669Z,8496
2017-09-04T13:04:52.093Z,8372
2017-09-04T13:05:51.969Z,8344
2017-09-04T13:07:51.975Z,8484
2017-09-04T13:08:51.983Z,8460
2017-09-04T13:09:51.936Z,8488
2017-09-04T13:10:52.041Z,8672
2017-09-04T13:11:51.985Z,8888
2017-09-04T13:12:52.291Z,9108
2017-09-04T13:13:52.025Z,7104
2017-09-04T13:14:52.347Z,7460
2017-09-04T13:15:52.085Z,9652
2017-09-04T13:17:06.737Z,9544
2017-09-04T13:18:06.740Z,9388
2017-09-04T13:18:51.960Z,6692
2017-09-04T13:19:51.873Z,6488
2017-09-04T13:20:51.921Z,8020
2017-09-04T13:23:07.195Z,7228
2017-09-04T13:24:06.895Z,6184
2017-09-04T13:24:52.579Z,6244
2017-09-04T13:26:07.279Z,8640
2017-09-04T13:26:52.383Z,8760
2017-09-04T13:27:52.720Z,8808
2017-09-04T13:29:07.348Z,8600
2017-09-04T13:30:07.393Z,8712
2017-09-04T13:31:07.399Z,8468
2017-09-04T13:31:52.605Z,8404
2017-09-04T13:32:52.852Z,8244
2017-09-04T13:33:52.984Z,6012
2017-09-04T13:34:52.582Z,5988
2017-09-04T13:36:52.947Z,5788
2017-09-04T13:37:53.045Z,5836
2017-09-04T13:39:53.134Z,5900
2017-09-04T13:40:52.850Z,7684
2017-09-04T13:41:52.778Z,7192
2017-09-04T13:42:52.912Z,7092
2017-09-04T13:43:53.132Z,7328
2017-09-04T13:44:52.806Z,7528
2017-09-04T13:46:07.804Z,7756
2017-09-04T13:47:07.841Z,7400
2017-09-04T13:47:53.377Z,7028
2017-09-04T13:48:53.060Z,6836
2017-09-04T13:49:53.100Z,7312
2017-09-04T13:50:52.711Z,7364
2017-09-04T13:51:53.365Z,7412
2017-09-04T13:52:53.213Z,6708
2017-09-04T13:53:52.789Z,5760
2017-09-04T13:55:08.037Z,6260
2017-09-04T13:55:53.260Z,6424
2017-09-04T13:56:53.180Z,6196
2017-09-04T13:57:53.633Z,5484
2017-09-04T13:58:53.785Z,5392
2017-09-04T13:59:53.261Z,5364
2017-09-04T14:00:53.840Z,5548
2017-09-04T14:01:53.311Z,5832
2017-09-04T14:02:53.748Z,7228
2017-09-04T14:04:07.973Z,6124
2017-09-04T14:04:53.376Z,7944
2017-09-04T14:05:53.950Z,5740
2017-09-04T14:06:53.432Z,5484
2017-09-04T14:07:53.566Z,5452
2017-09-04T14:09:08.417Z,7472
2017-09-04T14:09:53.837Z,7384
2017-09-04T14:11:08.617Z,5148
2017-09-04T14:11:53.982Z,5124
2017-09-04T14:12:53.602Z,6820
2017-09-04T14:13:53.729Z,6956
2017-09-04T14:14:54.077Z,6780
2017-09-04T14:15:53.993Z,6416
2017-09-04T14:16:54.387Z,4560
2017-09-04T14:17:54.023Z,5536
2017-09-04T14:19:08.365Z,6644
2017-09-04T14:19:54.183Z,6816
2017-09-04T14:20:54.218Z,6640
2017-09-04T14:21:54.254Z,6772
2017-09-04T14:22:54.274Z,6748
2017-09-04T14:23:54.205Z,6696
2017-09-04T14:24:54.227Z,6572
2017-09-04T14:26:08.870Z,6424
2017-09-04T14:26:54.284Z,5556
2017-09-04T14:27:54.614Z,5244
2017-09-04T14:28:54.314Z,5020
2017-09-04T14:29:54.565Z,4760
2017-09-04T14:30:53.867Z,5160
2017-09-04T14:31:54.416Z,4976
2017-09-04T14:32:54.311Z,4576